createdAt,value
2019-05-26T00:01:04.031Z,95469.27
2019-05-26T00:03:33.674Z,95470.22
2019-05-26T00:06:03.259Z,95466.48
2019-05-26T00:08:32.522Z,95468.61
2019-05-26T00:11:01.788Z,95466.87
2019-05-26T00:13:31.044Z,95466.41
2019-05-26T00:16:00.559Z,95458.88
2019-05-26T00:18:33.264Z,95469.51
2019-05-26T00:21:01.201Z,95459.58
2019-05-26T00:24:09.842Z,95451.80
2019-05-26T00:26:39.430Z,95460.52
2019-05-26T00:29:09.144Z,95456.00
2019-05-26T00:31:50.929Z,95451.45
2019-05-26T00:34:09.995Z,95444.97
2019-05-26T00:36:39.303Z,95443.21
2019-05-26T00:39:09.000Z,95443.92
2019-05-26T00:41:38.212Z,95437.14
2019-05-26T00:44:07.465Z,95439.48
2019-05-26T00:46:36.776Z,95441.35
2019-05-26T00:49:45.702Z,95435.77
2019-05-26T00:52:14.952Z,95439.69
2019-05-26T00:54:44.533Z,95439.22
2019-05-26T00:57:13.723Z,95437.27
2019-05-26T01:00:01.975Z,95434.36
2019-05-26T01:02:31.479Z,95437.70
2019-05-26T01:05:00.730Z,95436.61
2019-05-26T01:07:30.919Z,95434.73
2019-05-26T01:10:00.545Z,95439.22
2019-05-26T01:12:30.119Z,95439.69
2019-05-26T01:14:59.396Z,95443.66
2019-05-26T01:17:29.023Z,95445.85
2019-05-26T01:19:58.627Z,95434.15
2019-05-26T01:22:27.979Z,95439.54
2019-05-26T01:24:57.477Z,95434.84
2019-05-26T01:27:26.743Z,95427.39
2019-05-26T01:29:56.341Z,95435.08
2019-05-26T01:32:25.588Z,95435.95
2019-05-26T01:34:54.779Z,95437.41
2019-05-26T01:37:24.480Z,95444.69
2019-05-26T01:39:53.990Z,95443.11
2019-05-26T01:42:23.301Z,95443.99
2019-05-26T01:44:52.511Z,95437.31
2019-05-26T01:47:22.056Z,95444.33
2019-05-26T01:49:51.275Z,95443.17
2019-05-26T01:52:21.059Z,95444.13
2019-05-26T01:54:50.573Z,95441.83
2019-05-26T01:57:19.941Z,95444.44
2019-05-26T01:59:49.136Z,95437.77
2019-05-26T02:02:18.672Z,95441.20
2019-05-26T02:04:48.229Z,95443.66
2019-05-26T02:07:17.473Z,95444.70
2019-05-26T02:09:46.673Z,95439.53
2019-05-26T02:12:16.284Z,95449.76
2019-05-26T02:14:45.485Z,95451.37
2019-05-26T02:17:14.748Z,95449.36
2019-05-26T02:19:43.945Z,95452.94
2019-05-26T02:22:13.140Z,95442.72
2019-05-26T02:24:42.527Z,95451.37
2019-05-26T02:27:11.725Z,95442.58
2019-05-26T02:29:40.980Z,95440.17
2019-05-26T02:32:10.178Z,95446.97
2019-05-26T02:34:39.432Z,95443.05
2019-05-26T02:37:08.629Z,95453.98
2019-05-26T02:39:37.854Z,95447.46
2019-05-26T02:42:07.375Z,95445.13
2019-05-26T02:44:36.614Z,95444.66
2019-05-26T02:47:06.275Z,95442.84
2019-05-26T02:49:35.525Z,95443.52
2019-05-26T02:52:04.813Z,95444.83
2019-05-26T02:54:34.391Z,95444.66
2019-05-26T02:57:03.949Z,95445.80
2019-05-26T02:59:33.188Z,95447.87
2019-05-26T03:02:04.501Z,95448.50
2019-05-26T03:04:33.342Z,95443.41
2019-05-26T03:07:41.920Z,95437.23
2019-05-26T03:10:11.428Z,95435.00
2019-05-26T03:13:21.049Z,95438.58
2019-05-26T03:15:50.239Z,95441.20
2019-05-26T03:18:19.936Z,95443.13
2019-05-26T03:20:49.432Z,95437.86
2019-05-26T03:23:18.687Z,95438.38
2019-05-26T03:25:47.915Z,95438.85
2019-05-26T03:28:17.125Z,95438.23
2019-05-26T03:30:46.746Z,95436.13
2019-05-26T03:33:16.219Z,95444.55
2019-05-26T03:35:45.851Z,95444.70
2019-05-26T03:38:15.417Z,95438.89
2019-05-26T03:40:44.664Z,95443.02
2019-05-26T03:43:14.264Z,95438.59
2019-05-26T03:46:21.657Z,95439.11
2019-05-26T03:49:30.729Z,95447.30
2019-05-26T03:52:00.334Z,95455.44
2019-05-26T03:54:29.878Z,95457.22
2019-05-26T03:56:59.149Z,95454.50
2019-05-26T03:59:28.684Z,95448.88
2019-05-26T04:01:58.203Z,95455.34
2019-05-26T04:04:28.922Z,95453.69
2019-05-26T04:06:58.172Z,95461.35
2019-05-26T04:09:27.725Z,95458.02
2019-05-26T04:11:57.333Z,95455.68
2019-05-26T04:14:26.551Z,95455.83
2019-05-26T04:16:58.801Z,95459.80
2019-05-26T04:19:28.204Z,95457.19
2019-05-26T04:21:57.807Z,95456.02
2019-05-26T04:24:27.022Z,95459.31
2019-05-26T04:26:56.281Z,95459.79
2019-05-26T04:29:25.542Z,95460.69
2019-05-26T04:31:54.810Z,95455.97
2019-05-26T04:34:24.406Z,95459.53
2019-05-26T04:36:53.657Z,95460.78
2019-05-26T04:39:23.266Z,95458.17
2019-05-26T04:41:52.537Z,95456.77
2019-05-26T04:44:22.193Z,95463.65
2019-05-26T04:46:51.731Z,95461.04
2019-05-26T04:49:21.025Z,95464.55
2019-05-26T04:51:50.206Z,95467.30
2019-05-26T04:54:19.842Z,95466.99
2019-05-26T04:56:49.039Z,95469.81
2019-05-26T04:59:18.285Z,95474.98
2019-05-26T05:01:47.473Z,95466.67
2019-05-26T05:04:16.713Z,95469.54
2019-05-26T05:06:45.961Z,95467.13
2019-05-26T05:09:15.653Z,95478.01
2019-05-26T05:11:45.237Z,95478.99
2019-05-26T05:14:14.675Z,95479.25
2019-05-26T05:16:43.882Z,95480.08
2019-05-26T05:19:13.372Z,95483.64
2019-05-26T05:21:42.961Z,95481.70
2019-05-26T05:24:12.586Z,95476.16
2019-05-26T05:26:41.856Z,95477.12
2019-05-26T05:29:11.066Z,95480.26
2019-05-26T05:31:40.315Z,95481.77
2019-05-26T05:34:09.528Z,95477.62
2019-05-26T05:36:39.160Z,95480.91
2019-05-26T05:42:17.636Z,95485.78
2019-05-26T05:44:46.839Z,95485.39
2019-05-26T05:47:16.110Z,95487.64
2019-05-26T05:50:04.974Z,95483.61
2019-05-26T05:52:34.550Z,95480.25
2019-05-26T05:58:12.689Z,95476.50
2019-05-26T06:03:37.806Z,95481.98
2019-05-26T06:06:07.086Z,95488.25
2019-05-26T06:08:36.284Z,95485.84
2019-05-26T06:11:15.918Z,95489.00
2019-05-26T06:13:36.501Z,95487.69
2019-05-26T06:16:06.152Z,95485.60
2019-05-26T06:18:35.764Z,95493.05
2019-05-26T06:21:05.010Z,95491.70
2019-05-26T06:23:36.761Z,95494.91
2019-05-26T06:26:05.452Z,95492.92
2019-05-26T06:31:10.150Z,95490.67
2019-05-26T06:33:39.403Z,95492.07
2019-05-26T06:36:08.943Z,95498.86
2019-05-26T06:38:38.560Z,95487.22
2019-05-26T06:41:08.060Z,95488.41
2019-05-26T06:43:37.301Z,95485.00
2019-05-26T06:46:06.864Z,95482.86
2019-05-26T06:48:36.474Z,95485.00
2019-05-26T06:51:05.683Z,95490.01
2019-05-26T06:53:37.249Z,95492.17
2019-05-26T06:56:05.873Z,95490.99
2019-05-26T06:58:35.547Z,95495.19
2019-05-26T07:01:04.763Z,95498.09
2019-05-26T07:03:34.163Z,95497.36
2019-05-26T07:06:03.727Z,95499.64
2019-05-26T07:08:33.249Z,95500.06
2019-05-26T07:11:02.831Z,95502.73
2019-05-26T07:13:32.089Z,95502.44
2019-05-26T07:16:01.374Z,95498.66
2019-05-26T07:18:31.249Z,95500.81
2019-05-26T07:21:00.522Z,95499.36
2019-05-26T07:23:29.732Z,95503.84
2019-05-26T07:25:59.051Z,95510.97
2019-05-26T07:28:28.612Z,95510.72
2019-05-26T07:30:58.516Z,95513.41
2019-05-26T07:33:28.232Z,95520.03
2019-05-26T07:35:57.785Z,95517.63
2019-05-26T07:38:27.389Z,95521.61
2019-05-26T07:40:56.654Z,95517.39
2019-05-26T07:43:28.199Z,95521.33
2019-05-26T07:45:57.576Z,95522.27
2019-05-26T07:48:27.145Z,95520.85
2019-05-26T07:50:56.398Z,95516.77
2019-05-26T07:53:26.056Z,95517.02
2019-05-26T07:55:55.430Z,95515.09
2019-05-26T08:00:59.559Z,95506.64
2019-05-26T08:03:28.887Z,95506.66
2019-05-26T08:05:58.386Z,95510.77
2019-05-26T08:08:27.590Z,95514.88
2019-05-26T08:10:57.499Z,95511.26
2019-05-26T08:13:27.413Z,95512.61
2019-05-26T08:15:57.385Z,95515.55
2019-05-26T08:18:26.603Z,95508.34
2019-05-26T08:20:55.998Z,95507.20
2019-05-26T08:23:25.200Z,95506.38
2019-05-26T08:25:55.119Z,95500.33
2019-05-26T08:28:24.287Z,95498.36
2019-05-26T08:30:53.877Z,95493.42
2019-05-26T08:33:23.462Z,95495.94
2019-05-26T08:36:11.799Z,95493.13
2019-05-26T08:39:00.074Z,95493.64
2019-05-26T08:41:29.321Z,95493.64
2019-05-26T08:43:58.522Z,95492.03
2019-05-26T08:46:27.774Z,95487.75
2019-05-26T08:48:57.502Z,95492.03
2019-05-26T08:51:45.828Z,95490.05
2019-05-26T08:54:15.372Z,95489.58
2019-05-26T08:56:44.615Z,95497.60
2019-05-26T08:59:14.138Z,95490.54
2019-05-26T09:02:02.464Z,95491.03
2019-05-26T09:04:31.654Z,95490.87
2019-05-26T09:07:00.898Z,95491.84
2019-05-26T09:09:30.373Z,95486.38
2019-05-26T09:12:00.185Z,95481.59
2019-05-26T09:14:48.472Z,95486.72
2019-05-26T09:17:18.294Z,95486.72
2019-05-26T09:19:48.404Z,95483.41
2019-05-26T09:22:17.954Z,95475.58
2019-05-26T09:24:47.279Z,95476.36
2019-05-26T09:27:24.703Z,95468.80
2019-05-26T09:29:53.915Z,95473.02
2019-05-26T09:32:23.164Z,95475.28
2019-05-26T09:34:53.251Z,95468.40
2019-05-26T09:37:22.907Z,95467.08
2019-05-26T09:39:52.125Z,95466.28
2019-05-26T09:42:22.482Z,95464.64
2019-05-26T09:44:52.587Z,95465.52
2019-05-26T09:47:21.891Z,95468.00
2019-05-26T09:49:51.715Z,95462.89
2019-05-26T09:52:21.428Z,95458.64
2019-05-26T09:54:51.022Z,95450.51
2019-05-26T09:57:20.340Z,95445.69
2019-05-26T09:59:49.560Z,95447.23
2019-05-26T10:02:18.760Z,95447.04
2019-05-26T10:04:48.339Z,95444.62
2019-05-26T10:07:18.258Z,95446.58
2019-05-26T10:09:47.509Z,95445.84
2019-05-26T10:12:17.161Z,95444.38
2019-05-26T10:14:47.815Z,95447.34
2019-05-26T10:17:17.849Z,95447.64
2019-05-26T10:19:47.100Z,95445.12
2019-05-26T10:22:16.608Z,95440.63
2019-05-26T10:24:45.848Z,95440.72
2019-05-26T10:27:34.264Z,95445.73
2019-05-26T10:30:03.572Z,95437.00
2019-05-26T10:32:33.123Z,95443.55
2019-05-26T10:35:02.319Z,95433.71
2019-05-26T10:37:31.867Z,95429.21
2019-05-26T10:40:01.069Z,95437.55
2019-05-26T10:42:30.671Z,95432.22
2019-05-26T10:44:59.876Z,95431.48
2019-05-26T10:47:29.120Z,95434.86
2019-05-26T10:49:58.363Z,95426.34
2019-05-26T10:52:27.632Z,95426.52
2019-05-26T10:54:57.176Z,95420.59
2019-05-26T10:57:26.809Z,95418.74
2019-05-26T11:00:15.072Z,95418.11
2019-05-26T11:02:44.629Z,95423.47
2019-05-26T11:05:53.476Z,95420.34
2019-05-26T11:08:23.369Z,95419.08
2019-05-26T11:10:52.588Z,95420.78
2019-05-26T11:13:22.096Z,95421.91
2019-05-26T11:15:51.335Z,95417.03
2019-05-26T11:18:20.605Z,95418.71
2019-05-26T11:20:50.286Z,95413.99
2019-05-26T11:23:19.485Z,95414.88
2019-05-26T11:25:49.443Z,95407.13
2019-05-26T11:28:18.633Z,95404.23
2019-05-26T11:30:47.867Z,95397.20
2019-05-26T11:33:17.111Z,95397.69
2019-05-26T11:35:46.590Z,95399.02
2019-05-26T11:38:16.282Z,95394.55
2019-05-26T11:40:45.557Z,95397.69
2019-05-26T11:43:17.201Z,95396.27
2019-05-26T11:45:45.718Z,95390.09
2019-05-26T11:48:14.912Z,95388.97
2019-05-26T11:50:44.172Z,95385.01
2019-05-26T11:53:13.801Z,95382.80
2019-05-26T11:55:43.365Z,95382.73
2019-05-26T11:58:12.607Z,95377.88
2019-05-26T12:00:41.804Z,95375.03
2019-05-26T12:03:11.347Z,95366.67
2019-05-26T12:05:40.530Z,95378.88
2019-05-26T12:08:10.358Z,95371.52
2019-05-26T12:10:39.903Z,95367.53
2019-05-26T12:13:09.231Z,95361.13
2019-05-26T12:15:38.684Z,95367.75
2019-05-26T12:18:08.381Z,95348.77
2019-05-26T12:20:56.649Z,95348.33
2019-05-26T12:23:26.235Z,95348.77
2019-05-26T12:25:56.048Z,95343.67
2019-05-26T12:28:25.682Z,95338.38
2019-05-26T12:30:54.867Z,95333.81
2019-05-26T12:33:24.567Z,95330.55
2019-05-26T12:35:53.771Z,95334.48
2019-05-26T12:38:23.007Z,95326.91
2019-05-26T12:40:52.200Z,95323.94
2019-05-26T12:43:21.808Z,95326.09
2019-05-26T12:45:51.341Z,95321.84
2019-05-26T12:48:20.584Z,95323.28
2019-05-26T12:50:49.783Z,95322.23
2019-05-26T12:53:19.036Z,95320.07
2019-05-26T12:55:48.567Z,95318.55
2019-05-26T12:58:17.808Z,95317.38
2019-05-26T13:00:49.841Z,95312.52
2019-05-26T13:03:17.979Z,95317.89
2019-05-26T13:05:47.512Z,95317.15
2019-05-26T13:08:16.753Z,95306.80
2019-05-26T13:10:45.941Z,95307.23
2019-05-26T13:13:15.615Z,95301.19
2019-05-26T13:15:44.817Z,95299.50
2019-05-26T13:18:14.068Z,95297.48
2019-05-26T13:20:43.536Z,95294.47
2019-05-26T13:23:12.731Z,95295.80
2019-05-26T13:25:42.429Z,95295.11
2019-05-26T13:28:11.657Z,95289.81
2019-05-26T13:30:40.922Z,95283.44
2019-05-26T13:33:10.122Z,95280.30
2019-05-26T13:35:39.448Z,95278.97
2019-05-26T13:38:48.336Z,95286.31
2019-05-26T13:41:17.603Z,95286.10
2019-05-26T13:43:47.177Z,95283.27
2019-05-26T13:46:16.430Z,95282.41
2019-05-26T13:51:34.207Z,95285.88
2019-05-26T13:54:03.396Z,95286.52
2019-05-26T13:56:32.661Z,95280.54
2019-05-26T13:59:01.857Z,95276.52
2019-05-26T14:01:31.105Z,95276.41
2019-05-26T14:04:00.294Z,95273.05
2019-05-26T14:06:29.557Z,95274.94
2019-05-26T14:09:02.063Z,95273.42
2019-05-26T14:11:30.076Z,95274.13
2019-05-26T14:13:59.345Z,95276.66
2019-05-26T14:17:07.983Z,95277.22
2019-05-26T14:20:16.560Z,95277.98
2019-05-26T14:22:45.799Z,95279.64
2019-05-26T14:25:15.770Z,95279.85
2019-05-26T14:27:45.998Z,95282.89
2019-05-26T14:33:24.647Z,95283.50
2019-05-26T14:35:53.883Z,95278.33
2019-05-26T14:38:23.134Z,95281.39
2019-05-26T14:40:52.653Z,95274.39
2019-05-26T14:43:22.254Z,95272.41
2019-05-26T14:46:10.379Z,95273.53
2019-05-26T14:48:39.641Z,95275.48
2019-05-26T14:51:09.242Z,95279.73
2019-05-26T14:53:40.305Z,95274.16
2019-05-26T14:56:09.894Z,95268.05
2019-05-26T14:58:39.141Z,95262.77
2019-05-26T15:01:08.500Z,95266.70
2019-05-26T15:03:37.689Z,95266.41
2019-05-26T15:06:06.943Z,95260.41
2019-05-26T15:08:36.461Z,95262.52
2019-05-26T15:11:06.066Z,95261.36
2019-05-26T15:13:35.313Z,95257.91
2019-05-26T15:16:09.953Z,95266.86
2019-05-26T15:18:36.246Z,95258.69
2019-05-26T15:21:05.640Z,95261.27
2019-05-26T15:23:35.223Z,95258.11
2019-05-26T15:26:05.559Z,95258.08
2019-05-26T15:28:36.154Z,95261.61
2019-05-26T15:31:05.439Z,95256.49
2019-05-26T15:33:34.638Z,95249.62
2019-05-26T15:36:03.849Z,95247.69
2019-05-26T15:38:42.573Z,95245.63
2019-05-26T15:41:04.380Z,95254.95
2019-05-26T15:43:33.622Z,95247.74
2019-05-26T15:46:03.122Z,95244.83
2019-05-26T15:48:32.537Z,95231.11
2019-05-26T15:51:01.728Z,95233.74
2019-05-26T15:53:30.988Z,95238.55
2019-05-26T15:56:00.189Z,95239.49
2019-05-26T16:01:23.939Z,95231.95
2019-05-26T16:03:53.823Z,95224.13
2019-05-26T16:06:23.012Z,95225.45
2019-05-26T16:08:52.207Z,95232.70
2019-05-26T16:11:21.835Z,95226.45
2019-05-26T16:13:51.114Z,95230.11
2019-05-26T16:16:20.426Z,95226.00
2019-05-26T16:21:37.919Z,95221.34
2019-05-26T16:24:07.482Z,95220.69
2019-05-26T16:26:38.098Z,95219.16
2019-05-26T16:29:07.296Z,95218.88
2019-05-26T16:31:36.953Z,95216.30
2019-05-26T16:34:06.519Z,95217.92
2019-05-26T16:36:36.538Z,95219.08
2019-05-26T16:39:46.703Z,95218.55
2019-05-26T16:42:16.343Z,95216.10
2019-05-26T16:44:45.874Z,95216.49
2019-05-26T16:47:15.077Z,95206.28
2019-05-26T16:49:44.318Z,95212.52
2019-05-26T16:52:13.961Z,95207.69
2019-05-26T16:54:43.213Z,95211.05
2019-05-26T16:57:12.714Z,95208.34
2019-05-26T17:00:00.964Z,95203.73
2019-05-26T17:02:30.465Z,95207.11
2019-05-26T17:04:59.729Z,95211.36
2019-05-26T17:07:28.936Z,95200.52
2019-05-26T17:09:58.568Z,95192.24
2019-05-26T17:12:27.822Z,95205.66
2019-05-26T17:14:57.382Z,95197.11
2019-05-26T17:17:26.958Z,95194.10
2019-05-26T17:19:56.626Z,95194.02
2019-05-26T17:22:44.802Z,95191.67
2019-05-26T17:25:14.333Z,95197.55
2019-05-26T17:27:43.562Z,95196.86
2019-05-26T17:30:52.191Z,95200.80
2019-05-26T17:33:21.375Z,95197.42
2019-05-26T17:35:50.960Z,95190.38
2019-05-26T17:38:20.289Z,95185.98
2019-05-26T17:40:50.279Z,95179.00
2019-05-26T17:43:19.476Z,95187.23
2019-05-26T17:45:48.725Z,95180.36
2019-05-26T17:48:17.959Z,95185.80
2019-05-26T17:50:47.279Z,95181.19
2019-05-26T17:53:16.468Z,95180.49
2019-05-26T17:55:45.774Z,95179.78
2019-05-26T17:58:14.970Z,95179.36
2019-05-26T18:00:44.219Z,95185.47
2019-05-26T18:03:13.705Z,95183.99
2019-05-26T18:05:42.915Z,95176.15
2019-05-26T18:08:12.157Z,95178.67
2019-05-26T18:10:41.667Z,95179.46
2019-05-26T18:13:10.957Z,95177.78
2019-05-26T18:15:40.144Z,95176.66
2019-05-26T18:18:10.117Z,95185.32
2019-05-26T18:20:39.324Z,95188.50
2019-05-26T18:23:08.568Z,95183.77
2019-05-26T18:28:26.734Z,95183.22
2019-05-26T18:30:56.699Z,95170.46
2019-05-26T18:33:26.005Z,95177.02
2019-05-26T18:35:55.565Z,95175.98
2019-05-26T18:38:24.861Z,95178.34
2019-05-26T18:40:54.053Z,95182.49
2019-05-26T18:43:23.322Z,95180.47
2019-05-26T18:45:52.860Z,95171.73
2019-05-26T18:48:22.776Z,95179.55
2019-05-26T18:50:52.383Z,95174.64
2019-05-26T18:53:21.572Z,95173.82
2019-05-26T18:55:50.839Z,95182.52
2019-05-26T18:58:20.341Z,95180.44
2019-05-26T19:00:49.870Z,95183.09
2019-05-26T19:03:20.592Z,95183.33
2019-05-26T19:05:49.838Z,95180.56
2019-05-26T19:08:19.385Z,95190.95
2019-05-26T19:10:48.935Z,95185.65
2019-05-26T19:13:18.544Z,95191.02
2019-05-26T19:15:47.942Z,95188.94
2019-05-26T19:18:20.185Z,95190.81
2019-05-26T19:20:48.495Z,95183.39
2019-05-26T19:23:18.503Z,95189.00
2019-05-26T19:26:27.158Z,95191.28
2019-05-26T19:28:56.735Z,95190.10
2019-05-26T19:31:26.025Z,95190.85
2019-05-26T19:33:55.242Z,95191.16
2019-05-26T19:36:44.174Z,95194.61
2019-05-26T19:39:13.375Z,95199.88
2019-05-26T19:41:42.645Z,95192.73
2019-05-26T19:44:12.200Z,95197.05
2019-05-26T19:46:41.815Z,95195.59
2019-05-26T19:49:11.318Z,95193.48
2019-05-26T19:51:40.948Z,95194.81
2019-05-26T19:54:10.147Z,95188.69
2019-05-26T19:56:39.403Z,95188.03
2019-05-26T19:59:08.915Z,95188.08
2019-05-26T20:01:38.628Z,95186.68
2019-05-26T20:04:10.439Z,95191.70
2019-05-26T20:06:39.699Z,95187.14
2019-05-26T20:09:48.968Z,95189.22
2019-05-26T20:12:18.788Z,95184.30
2019-05-26T20:14:48.271Z,95184.36
2019-05-26T20:17:17.856Z,95184.84
2019-05-26T20:19:47.353Z,95180.08
2019-05-26T20:22:16.851Z,95180.69
2019-05-26T20:24:46.250Z,95177.72
2019-05-26T20:27:15.437Z,95183.67
2019-05-26T20:29:45.072Z,95190.12
2019-05-26T20:32:14.336Z,95182.95
2019-05-26T20:34:43.874Z,95183.82
2019-05-26T20:37:13.094Z,95177.19
2019-05-26T20:39:42.778Z,95169.78
2019-05-26T20:42:12.001Z,95179.00
2019-05-26T20:44:41.276Z,95185.77
2019-05-26T20:47:10.526Z,95178.32
2019-05-26T20:49:45.287Z,95180.12
2019-05-26T20:52:11.241Z,95179.80
2019-05-26T20:54:40.726Z,95186.42
2019-05-26T20:57:09.976Z,95175.84
2019-05-26T20:59:39.630Z,95184.66
2019-05-26T21:02:09.915Z,95180.72
2019-05-26T21:04:39.119Z,95192.19
2019-05-26T21:07:08.357Z,95185.50
2019-05-26T21:09:37.854Z,95186.91
2019-05-26T21:12:26.314Z,95184.81
2019-05-26T21:14:55.913Z,95185.92
2019-05-26T21:17:25.151Z,95185.58
2019-05-26T21:19:54.895Z,95180.52
2019-05-26T21:24:59.655Z,95184.50
2019-05-26T21:27:28.903Z,95183.34
2019-05-26T21:29:58.104Z,95183.78
2019-05-26T21:32:31.198Z,95182.70
2019-05-26T21:34:58.603Z,95182.22
2019-05-26T21:37:28.215Z,95190.30
2019-05-26T21:39:57.402Z,95192.63
2019-05-26T21:42:26.651Z,95193.80
2019-05-26T21:44:55.837Z,95190.72
2019-05-26T21:47:25.723Z,95182.04
2019-05-26T21:49:54.915Z,95185.53
2019-05-26T21:52:24.182Z,95187.98
2019-05-26T21:54:53.723Z,95187.38
2019-05-26T21:57:22.915Z,95190.98
2019-05-26T21:59:52.446Z,95184.75
2019-05-26T22:02:21.635Z,95184.30
2019-05-26T22:04:51.216Z,95189.25
2019-05-26T22:07:21.800Z,95188.80
2019-05-26T22:09:51.367Z,95184.13
2019-05-26T22:12:20.972Z,95179.53
2019-05-26T22:14:50.269Z,95182.28
2019-05-26T22:17:19.460Z,95176.05
2019-05-26T22:19:48.700Z,95170.73
2019-05-26T22:22:18.176Z,95169.30
2019-05-26T22:24:47.786Z,95177.39
2019-05-26T22:27:16.998Z,95169.41
2019-05-26T22:29:46.225Z,95169.73
2019-05-26T22:32:15.544Z,95167.13
2019-05-26T22:34:44.802Z,95165.17
2019-05-26T22:37:13.987Z,95159.27
2019-05-26T22:39:43.604Z,95167.34
2019-05-26T22:42:13.500Z,95161.94
2019-05-26T22:44:42.759Z,95146.53
2019-05-26T22:47:11.952Z,95158.02
2019-05-26T22:52:17.932Z,95155.56
2019-05-26T22:54:48.175Z,95145.10
2019-05-26T22:57:17.345Z,95143.30
2019-05-26T22:59:46.576Z,95143.30
2019-05-26T23:02:15.904Z,95143.34
2019-05-26T23:05:04.315Z,95133.19
2019-05-26T23:07:52.591Z,95138.45
2019-05-26T23:10:21.848Z,95138.45
2019-05-26T23:12:51.044Z,95142.88
2019-05-26T23:15:20.791Z,95127.82
2019-05-26T23:17:49.980Z,95135.38
2019-05-26T23:20:19.242Z,95133.44
2019-05-26T23:22:48.446Z,95130.16
2019-05-26T23:25:57.098Z,95126.69
2019-05-26T23:28:26.290Z,95126.70
2019-05-26T23:30:55.540Z,95125.88
2019-05-26T23:33:24.741Z,95120.80
2019-05-26T23:35:53.994Z,95117.05
2019-05-26T23:38:23.498Z,95116.89
2019-05-26T23:40:52.751Z,95118.36
2019-05-26T23:43:21.960Z,95121.95
2019-05-26T23:45:51.499Z,95119.16
2019-05-26T23:48:21.363Z,95117.20
2019-05-26T23:50:50.918Z,95115.24
2019-05-26T23:53:20.115Z,95116.74
2019-05-26T23:55:49.364Z,95111.50
2019-05-26T23:58:18.557Z,95113.44
